createdAt,value
2019-04-22T00:00:55.707Z,59.56
2019-04-22T00:03:27.396Z,59.61
2019-04-22T00:06:12.948Z,59.39
2019-04-22T00:08:42.842Z,59.30
2019-04-22T00:11:14.645Z,59.14
2019-04-22T00:13:43.891Z,59.15
2019-04-22T00:16:01.091Z,59.17
2019-04-22T00:18:46.822Z,59.28
2019-04-22T00:21:04.832Z,59.28
2019-04-22T00:23:23.477Z,59.39
2019-04-22T00:26:01.900Z,59.49
2019-04-22T00:28:24.838Z,59.57
2019-04-22T00:30:56.038Z,59.60
2019-04-22T00:33:25.055Z,59.53
2019-04-22T00:35:52.632Z,59.50
2019-04-22T00:40:44.736Z,59.23
2019-04-22T00:43:13.657Z,59.25
2019-04-22T00:45:44.780Z,59.33
2019-04-22T00:48:17.828Z,59.17
2019-04-22T00:50:37.467Z,59.15
2019-04-22T00:53:11.628Z,59.22
2019-04-22T00:55:32.600Z,59.26
2019-04-22T00:58:02.771Z,59.12
2019-04-22T01:00:31.417Z,59.02
2019-04-22T01:03:07.504Z,58.88
2019-04-22T01:05:30.234Z,59.06
2019-04-22T01:08:04.053Z,59.26
2019-04-22T01:10:27.075Z,59.23
2019-04-22T01:12:54.600Z,59.41
2019-04-22T01:15:24.724Z,59.33
2019-04-22T01:17:45.455Z,59.38
2019-04-22T01:20:25.674Z,59.25
2019-04-22T01:22:34.594Z,59.17
2019-04-22T01:25:02.231Z,59.14
2019-04-22T01:27:26.634Z,59.29
2019-04-22T01:29:52.378Z,59.40
2019-04-22T01:32:17.551Z,59.41
2019-04-22T01:34:51.550Z,59.39
2019-04-22T01:37:24.006Z,59.56
2019-04-22T01:39:57.036Z,59.66
2019-04-22T01:42:24.467Z,59.59
2019-04-22T01:44:50.984Z,59.80
2019-04-22T01:47:29.923Z,59.97
2019-04-22T01:49:46.159Z,59.90
2019-04-22T01:52:15.513Z,60.03
2019-04-22T01:57:09.925Z,60.00
2019-04-22T01:59:31.657Z,59.82
2019-04-22T02:02:14.059Z,59.91
2019-04-22T02:04:47.626Z,60.00
2019-04-22T02:09:38.108Z,60.03
2019-04-22T02:12:04.685Z,59.96
2019-04-22T02:14:34.378Z,60.04
2019-04-22T02:16:58.028Z,59.90
2019-04-22T02:21:48.857Z,59.97
2019-04-22T02:24:30.158Z,59.78
2019-04-22T02:27:00.397Z,59.92
2019-04-22T02:29:15.091Z,59.89
2019-04-22T02:34:21.661Z,60.09
2019-04-22T02:41:50.323Z,60.02
2019-04-22T02:46:50.001Z,59.94
2019-04-22T02:49:11.661Z,59.92
2019-04-22T02:54:21.889Z,59.85
2019-04-22T02:56:33.950Z,59.95
2019-04-22T02:59:12.447Z,59.80
2019-04-22T03:01:39.821Z,59.65
2019-04-22T03:04:03.316Z,59.82
2019-04-22T03:06:24.189Z,59.73
2019-04-22T03:08:51.704Z,59.56
2019-04-22T03:13:51.117Z,59.64
2019-04-22T03:18:57.227Z,59.60
2019-04-22T03:21:07.428Z,59.48
2019-04-22T03:28:29.279Z,59.67
2019-04-22T03:36:05.962Z,59.71
2019-04-22T03:38:41.607Z,59.70
2019-04-22T03:41:05.491Z,59.63
2019-04-22T03:43:24.020Z,59.66
2019-04-22T03:45:37.913Z,59.69
2019-04-22T03:48:36.151Z,59.72
2019-04-22T03:50:36.842Z,59.63
2019-04-22T03:58:01.774Z,59.13
2019-04-22T04:05:45.578Z,59.46
2019-04-22T04:08:12.110Z,59.47
2019-04-22T04:10:37.656Z,59.36
2019-04-22T04:13:02.934Z,59.13
2019-04-22T04:15:28.948Z,59.49
2019-04-22T04:18:03.309Z,60.18
2019-04-22T04:20:28.719Z,60.09
2019-04-22T04:35:32.869Z,59.56
2019-04-22T04:37:46.806Z,59.88
2019-04-22T04:40:12.501Z,60.46
2019-04-22T04:42:41.978Z,60.54
2019-04-22T04:47:43.566Z,60.59
2019-04-22T04:49:57.023Z,60.60
2019-04-22T04:52:42.420Z,60.80
2019-04-22T04:54:59.373Z,60.70
2019-04-22T05:00:26.050Z,60.52
2019-04-22T05:02:19.814Z,60.40
2019-04-22T05:07:18.645Z,60.12
2019-04-22T05:09:32.674Z,60.30
2019-04-22T05:12:19.007Z,60.26
2019-04-22T05:14:28.713Z,60.05
2019-04-22T05:17:10.956Z,59.89
2019-04-22T05:19:25.650Z,59.97
2019-04-22T05:22:00.337Z,59.58
2019-04-22T05:24:36.695Z,59.68
2019-04-22T05:29:17.269Z,59.51
2019-04-22T05:31:43.539Z,59.41
2019-04-22T05:34:14.427Z,60.30
2019-04-22T05:36:40.336Z,60.21
2019-04-22T05:39:09.878Z,60.13
2019-04-22T05:41:36.382Z,61.19
2019-04-22T05:44:03.273Z,60.28
2019-04-22T05:46:29.302Z,60.13
2019-04-22T05:48:59.740Z,60.00
2019-04-22T05:51:31.514Z,60.05
2019-04-22T05:53:57.459Z,59.78
2019-04-22T05:56:30.875Z,59.69
2019-04-22T05:58:51.478Z,60.07
2019-04-22T06:03:50.892Z,59.80
2019-04-22T06:06:15.069Z,60.06
2019-04-22T06:08:45.586Z,59.88
2019-04-22T06:11:17.131Z,59.73
2019-04-22T06:13:31.943Z,59.79
2019-04-22T06:16:01.855Z,59.80
2019-04-22T06:18:33.327Z,59.81
2019-04-22T06:21:07.115Z,59.97
2019-04-22T06:23:35.918Z,60.04
2019-04-22T06:26:09.883Z,60.64
2019-04-22T06:30:57.450Z,60.08
2019-04-22T06:33:20.280Z,60.07
2019-04-22T06:35:50.398Z,59.98
2019-04-22T06:40:46.799Z,59.75
2019-04-22T06:45:57.065Z,59.87
2019-04-22T06:48:15.341Z,59.97
2019-04-22T06:53:02.557Z,59.81
2019-04-22T06:55:47.090Z,59.87
2019-04-22T06:57:58.184Z,59.53
2019-04-22T07:00:30.597Z,59.90
2019-04-22T07:03:18.978Z,59.86
2019-04-22T07:05:28.066Z,59.87
2019-04-22T07:08:02.724Z,59.79
2019-04-22T07:10:28.652Z,59.71
2019-04-22T07:12:48.716Z,59.48
2019-04-22T07:15:24.203Z,59.26
2019-04-22T07:17:51.711Z,59.07
2019-04-22T07:20:14.100Z,59.13
2019-04-22T07:22:40.363Z,59.41
2019-04-22T07:25:06.278Z,59.20
2019-04-22T07:27:34.755Z,59.23
2019-04-22T07:30:08.589Z,59.52
2019-04-22T07:32:53.559Z,59.37
2019-04-22T07:34:59.323Z,59.07
2019-04-22T07:39:55.172Z,59.06
2019-04-22T07:42:24.486Z,58.83
2019-04-22T07:44:53.190Z,58.94
2019-04-22T07:49:43.777Z,59.87
2019-04-22T07:52:09.738Z,59.44
2019-04-22T07:54:43.151Z,59.13
2019-04-22T07:57:17.961Z,58.76
2019-04-22T07:59:35.284Z,58.57
2019-04-22T08:02:02.009Z,58.50
2019-04-22T08:04:50.068Z,58.65
2019-04-22T08:07:08.528Z,58.71
2019-04-22T08:09:35.634Z,58.37
2019-04-22T08:11:53.838Z,59.88
2019-04-22T08:14:29.990Z,59.51
2019-04-22T08:17:01.555Z,59.68
2019-04-22T08:19:20.341Z,59.81
2019-04-22T08:21:53.209Z,60.49
2019-04-22T08:24:18.070Z,61.15
2019-04-22T08:26:49.910Z,60.55
2019-04-22T08:29:21.639Z,60.73
2019-04-22T08:31:40.080Z,61.68
2019-04-22T08:34:06.324Z,61.73
2019-04-22T08:36:32.357Z,61.18
2019-04-22T08:39:03.833Z,61.60
2019-04-22T08:41:33.193Z,62.24
2019-04-22T08:46:33.245Z,62.00
2019-04-22T08:53:56.260Z,63.09
2019-04-22T08:58:50.700Z,63.10
2019-04-22T09:01:11.279Z,63.65
2019-04-22T09:03:40.104Z,63.64
2019-04-22T09:06:15.712Z,64.16
2019-04-22T09:11:04.656Z,63.25
2019-04-22T09:13:35.631Z,63.16
2019-04-22T09:15:55.531Z,62.76
2019-04-22T09:18:29.815Z,63.20
2019-04-22T09:20:57.223Z,63.05
2019-04-22T09:23:30.215Z,63.08
2019-04-22T09:25:51.095Z,64.12
2019-04-22T09:28:15.127Z,63.45
2019-04-22T09:30:56.890Z,62.87
2019-04-22T09:35:56.994Z,62.49
2019-04-22T09:38:25.381Z,61.37
2019-04-22T09:40:39.049Z,60.37
2019-04-22T09:43:13.121Z,59.52
2019-04-22T09:45:37.816Z,58.76
2019-04-22T09:48:08.802Z,58.35
2019-04-22T09:50:38.467Z,57.58
2019-04-22T09:53:03.593Z,57.37
2019-04-22T09:55:22.730Z,56.53
2019-04-22T09:58:00.084Z,56.39
2019-04-22T10:00:25.338Z,56.05
2019-04-22T10:02:55.376Z,55.69
2019-04-22T10:05:20.831Z,55.77
2019-04-22T10:07:50.555Z,56.04
2019-04-22T10:10:15.552Z,55.25
2019-04-22T10:15:07.893Z,55.22
2019-04-22T10:17:37.990Z,55.12
2019-04-22T10:20:07.205Z,54.82
2019-04-22T10:27:26.241Z,54.55
2019-04-22T10:32:27.103Z,54.42
2019-04-22T10:34:44.551Z,54.10
2019-04-22T10:37:10.971Z,54.31
2019-04-22T10:39:43.227Z,54.24
2019-04-22T10:42:02.894Z,53.68
2019-04-22T10:44:29.009Z,53.69
2019-04-22T10:46:56.089Z,53.41
2019-04-22T10:49:22.423Z,53.26
2019-04-22T10:51:48.683Z,53.04
2019-04-22T10:54:15.671Z,52.41
2019-04-22T10:56:43.118Z,52.76
2019-04-22T10:59:09.132Z,52.60
2019-04-22T11:01:38.387Z,52.68
2019-04-22T11:04:03.494Z,51.63
2019-04-22T11:06:29.566Z,52.04
2019-04-22T11:08:59.813Z,51.86
2019-04-22T11:11:32.568Z,51.81
2019-04-22T11:13:51.898Z,51.58
2019-04-22T11:16:19.269Z,51.52
2019-04-22T11:18:45.480Z,51.25
2019-04-22T11:21:11.629Z,51.14
2019-04-22T11:23:38.662Z,51.03
2019-04-22T11:26:05.911Z,51.23
2019-04-22T11:28:32.042Z,50.33
2019-04-22T11:30:58.734Z,50.27
2019-04-22T11:33:25.100Z,50.21
2019-04-22T11:35:52.114Z,50.21
2019-04-22T11:38:19.085Z,50.25
2019-04-22T11:40:50.017Z,50.48
2019-04-22T11:43:14.366Z,49.87
2019-04-22T11:45:41.620Z,49.86
2019-04-22T11:48:09.050Z,49.57
2019-04-22T11:50:35.712Z,49.34
2019-04-22T11:53:02.734Z,49.39
2019-04-22T11:55:29.014Z,49.58
2019-04-22T11:57:56.205Z,49.41
2019-04-22T12:00:25.069Z,49.50
2019-04-22T12:02:51.278Z,49.17
2019-04-22T12:05:17.501Z,49.28
2019-04-22T12:07:44.630Z,49.46
2019-04-22T12:10:22.869Z,49.43
2019-04-22T12:12:39.716Z,49.23
2019-04-22T12:15:06.937Z,48.89
2019-04-22T12:17:34.306Z,48.71
2019-04-22T12:20:03.193Z,49.03
2019-04-22T12:22:29.232Z,48.47
2019-04-22T12:24:56.570Z,48.72
2019-04-22T12:27:24.413Z,48.42
2019-04-22T12:29:51.179Z,48.55
2019-04-22T12:32:17.767Z,48.26
2019-04-22T12:34:43.779Z,47.98
2019-04-22T12:37:09.754Z,48.31
2019-04-22T12:39:35.784Z,48.29
2019-04-22T12:42:02.664Z,47.99
2019-04-22T12:44:28.622Z,47.83
2019-04-22T12:46:54.618Z,48.11
2019-04-22T12:49:20.474Z,48.01
2019-04-22T12:51:47.376Z,47.71
2019-04-22T12:54:15.096Z,47.61
2019-04-22T12:56:41.936Z,47.57
2019-04-22T12:59:07.931Z,47.12
2019-04-22T13:01:35.100Z,47.02
2019-04-22T13:04:05.816Z,47.37
2019-04-22T13:06:29.993Z,47.70
2019-04-22T13:08:56.577Z,47.32
2019-04-22T13:11:28.799Z,47.57
2019-04-22T13:13:51.180Z,47.68
2019-04-22T13:16:17.478Z,47.79
2019-04-22T13:18:49.964Z,47.74
2019-04-22T13:21:11.227Z,47.31
2019-04-22T13:23:37.194Z,47.84
2019-04-22T13:26:03.360Z,48.13
2019-04-22T13:28:29.355Z,48.37
2019-04-22T13:30:58.431Z,48.65
2019-04-22T13:33:23.368Z,48.83
2019-04-22T13:35:49.854Z,48.86
2019-04-22T13:38:17.372Z,48.80
2019-04-22T13:40:59.265Z,49.02
2019-04-22T13:43:11.301Z,49.09
2019-04-22T13:45:38.607Z,49.32
2019-04-22T13:48:22.069Z,49.31
2019-04-22T13:51:15.102Z,49.52
2019-04-22T13:56:07.614Z,49.77
2019-04-22T13:58:12.160Z,50.10
2019-04-22T14:00:34.417Z,50.30
2019-04-22T14:03:20.342Z,50.38
2019-04-22T14:05:58.411Z,50.69
2019-04-22T14:08:24.987Z,50.70
2019-04-22T14:10:52.326Z,50.89
2019-04-22T14:13:19.625Z,51.09
2019-04-22T14:15:46.759Z,51.08
2019-04-22T14:18:12.954Z,51.13
2019-04-22T14:20:40.715Z,50.99
2019-04-22T14:23:09.824Z,51.24
2019-04-22T14:25:46.219Z,51.32
2019-04-22T14:28:11.831Z,51.37
2019-04-22T14:30:34.765Z,51.51
2019-04-22T14:33:02.600Z,51.55
2019-04-22T14:35:29.140Z,51.58
2019-04-22T14:37:56.437Z,51.61
2019-04-22T14:40:24.411Z,51.73
2019-04-22T14:43:05.936Z,51.80
2019-04-22T14:45:50.677Z,51.98
2019-04-22T14:48:11.131Z,51.93
2019-04-22T14:50:38.965Z,51.84
2019-04-22T14:53:05.373Z,51.85
2019-04-22T14:55:17.509Z,51.83
2019-04-22T14:57:40.379Z,51.93
2019-04-22T15:00:09.505Z,51.97
2019-04-22T15:02:35.482Z,52.25
2019-04-22T15:05:01.579Z,52.39
2019-04-22T15:07:28.705Z,52.46
2019-04-22T15:09:55.717Z,52.38
2019-04-22T15:12:31.128Z,52.56
2019-04-22T15:14:49.375Z,52.65
2019-04-22T15:17:20.829Z,52.70
2019-04-22T15:19:49.663Z,52.85
2019-04-22T15:22:16.677Z,52.74
2019-04-22T15:24:42.712Z,52.73
2019-04-22T15:27:08.889Z,53.00
2019-04-22T15:29:35.564Z,52.76
2019-04-22T15:32:01.419Z,52.81
2019-04-22T15:34:28.304Z,53.16
2019-04-22T15:36:54.228Z,53.19
2019-04-22T15:39:20.794Z,53.17
2019-04-22T15:41:57.947Z,53.30
2019-04-22T15:44:15.444Z,53.03
2019-04-22T15:46:42.526Z,53.18
2019-04-22T15:49:09.891Z,53.22
2019-04-22T15:51:36.423Z,53.48
2019-04-22T15:54:03.594Z,53.24
2019-04-22T15:56:30.653Z,53.06
2019-04-22T15:58:57.786Z,53.67
2019-04-22T16:01:28.823Z,53.52
2019-04-22T16:03:52.465Z,53.99
2019-04-22T16:06:19.669Z,54.08
2019-04-22T16:08:47.753Z,54.17
2019-04-22T16:11:14.078Z,54.19
2019-04-22T16:13:40.198Z,54.27
2019-04-22T16:16:06.925Z,54.40
2019-04-22T16:18:33.109Z,54.41
2019-04-22T16:21:00.228Z,54.67
2019-04-22T16:23:34.210Z,54.72
2019-04-22T16:26:18.342Z,54.75
2019-04-22T16:28:45.192Z,54.58
2019-04-22T16:31:11.350Z,55.01
2019-04-22T16:33:39.872Z,54.88
2019-04-22T16:36:06.838Z,54.97
2019-04-22T16:38:35.197Z,55.24
2019-04-22T16:41:02.855Z,55.55
2019-04-22T16:43:28.986Z,55.41
2019-04-22T16:45:55.866Z,55.35
2019-04-22T16:48:22.120Z,55.52
2019-04-22T16:50:50.597Z,55.10
2019-04-22T16:53:16.874Z,55.48
2019-04-22T16:55:44.700Z,55.74
2019-04-22T16:58:12.557Z,55.70
2019-04-22T17:00:38.806Z,55.88
2019-04-22T17:03:24.651Z,55.99
2019-04-22T17:06:01.399Z,55.98
2019-04-22T17:08:28.556Z,56.13
2019-04-22T17:10:55.775Z,55.98
2019-04-22T17:13:25.372Z,56.11
2019-04-22T17:15:51.345Z,55.83
2019-04-22T17:18:17.378Z,56.44
2019-04-22T17:20:44.561Z,56.34
2019-04-22T17:23:11.602Z,56.58
2019-04-22T17:25:38.430Z,56.59
2019-04-22T17:28:05.701Z,56.50
2019-04-22T17:30:33.105Z,56.97
2019-04-22T17:32:59.175Z,56.68
2019-04-22T17:35:26.177Z,56.96
2019-04-22T17:38:04.223Z,56.90
2019-04-22T17:40:38.651Z,56.96
2019-04-22T17:43:15.292Z,57.22
2019-04-22T17:45:53.961Z,56.85
2019-04-22T17:48:27.589Z,57.56
2019-04-22T17:51:03.092Z,57.47
2019-04-22T17:53:26.259Z,57.52
2019-04-22T17:56:10.643Z,57.41
2019-04-22T17:58:21.090Z,57.45
2019-04-22T18:00:36.338Z,57.58
2019-04-22T18:03:05.692Z,58.00
2019-04-22T18:05:31.978Z,57.70
2019-04-22T18:08:09.751Z,57.99
2019-04-22T18:10:39.274Z,58.33
2019-04-22T18:13:15.764Z,57.87
2019-04-22T18:15:30.753Z,57.78
2019-04-22T18:18:09.136Z,57.75
2019-04-22T18:20:25.507Z,58.02
2019-04-22T18:22:45.963Z,58.01
2019-04-22T18:25:17.652Z,58.34
2019-04-22T18:27:53.955Z,58.23
2019-04-22T18:30:17.027Z,57.97
2019-04-22T18:32:47.143Z,58.05
2019-04-22T18:35:11.516Z,58.09
2019-04-22T18:37:42.462Z,57.92
2019-04-22T18:40:08.567Z,57.97
2019-04-22T18:42:31.669Z,57.99
2019-04-22T18:45:24.218Z,57.71
2019-04-22T18:47:28.845Z,57.72
2019-04-22T18:49:56.639Z,57.92
2019-04-22T18:52:42.730Z,58.02
2019-04-22T18:55:17.663Z,58.00
2019-04-22T18:58:02.763Z,57.96
2019-04-22T19:00:21.131Z,57.92
2019-04-22T19:02:54.033Z,58.07
2019-04-22T19:05:27.649Z,57.98
2019-04-22T19:08:13.688Z,57.95
2019-04-22T19:10:44.991Z,58.14
2019-04-22T19:13:31.511Z,58.07
2019-04-22T19:15:33.595Z,57.94
2019-04-22T19:18:01.893Z,57.98
2019-04-22T19:20:35.834Z,58.33
2019-04-22T19:22:58.944Z,58.17
2019-04-22T19:25:17.305Z,58.53
2019-04-22T19:27:46.238Z,58.45
2019-04-22T19:30:16.352Z,58.52
2019-04-22T19:32:43.071Z,58.61
2019-04-22T19:35:11.713Z,58.57
2019-04-22T19:37:39.977Z,58.35
2019-04-22T19:40:30.696Z,58.79
2019-04-22T19:42:49.451Z,58.50
2019-04-22T19:45:01.104Z,58.92
2019-04-22T19:47:38.730Z,59.24
2019-04-22T19:50:09.866Z,59.09
2019-04-22T19:52:28.721Z,59.11
2019-04-22T19:54:55.032Z,59.53
2019-04-22T19:57:22.213Z,59.20
2019-04-22T19:59:51.509Z,59.06
2019-04-22T20:02:24.954Z,59.08
2019-04-22T20:05:07.701Z,59.03
2019-04-22T20:07:28.104Z,59.07
2019-04-22T20:09:57.229Z,59.05
2019-04-22T20:12:27.073Z,59.31
2019-04-22T20:14:49.601Z,59.28
2019-04-22T20:17:24.475Z,59.17
2019-04-22T20:22:14.507Z,59.37
2019-04-22T20:24:28.388Z,59.44
2019-04-22T20:27:13.636Z,59.41
2019-04-22T20:29:41.823Z,59.40
2019-04-22T20:32:05.371Z,59.08
2019-04-22T20:34:41.185Z,59.37
2019-04-22T20:37:12.326Z,59.41
2019-04-22T20:39:33.507Z,59.32
2019-04-22T20:42:05.643Z,59.30
2019-04-22T20:44:32.275Z,59.20
2019-04-22T20:46:54.259Z,59.24
2019-04-22T20:49:25.623Z,59.24
2019-04-22T20:51:58.838Z,59.32
2019-04-22T20:54:17.676Z,59.61
2019-04-22T20:56:37.253Z,59.38
2019-04-22T20:59:16.309Z,59.46
2019-04-22T21:01:41.499Z,59.07
2019-04-22T21:03:56.405Z,59.22
2019-04-22T21:06:38.107Z,59.65
2019-04-22T21:09:10.189Z,59.52
2019-04-22T21:11:30.116Z,59.46
2019-04-22T21:13:55.967Z,59.45
2019-04-22T21:16:26.786Z,59.67
2019-04-22T21:18:46.056Z,59.58
2019-04-22T21:21:25.901Z,59.65
2019-04-22T21:23:43.159Z,60.00
2019-04-22T21:26:13.772Z,60.07
2019-04-22T21:28:44.512Z,60.18
2019-04-22T21:31:21.322Z,59.77
2019-04-22T21:33:42.808Z,59.95
2019-04-22T21:36:20.622Z,59.91
2019-04-22T21:38:40.382Z,59.88
2019-04-22T21:41:04.969Z,59.71
2019-04-22T21:43:38.593Z,59.67
2019-04-22T21:46:04.132Z,59.48
2019-04-22T21:48:42.719Z,59.47
2019-04-22T21:50:59.811Z,59.38
2019-04-22T21:53:33.319Z,59.52
2019-04-22T21:56:09.999Z,59.47
2019-04-22T21:58:20.357Z,59.10
2019-04-22T22:01:15.129Z,59.29
2019-04-22T22:03:38.469Z,59.43
2019-04-22T22:05:56.951Z,59.77
2019-04-22T22:08:35.153Z,59.78
2019-04-22T22:10:57.938Z,59.67
2019-04-22T22:13:31.956Z,59.51
2019-04-22T22:15:52.091Z,59.44
2019-04-22T22:18:20.026Z,59.48
2019-04-22T22:21:12.931Z,59.64
2019-04-22T22:23:28.031Z,59.60
2019-04-22T22:25:46.788Z,59.58
2019-04-22T22:28:37.904Z,59.34
2019-04-22T22:30:58.170Z,59.28
2019-04-22T22:33:10.979Z,58.93
2019-04-22T22:35:36.079Z,59.48
2019-04-22T22:38:03.023Z,59.72
2019-04-22T22:40:19.831Z,59.71
2019-04-22T22:42:45.637Z,59.69
2019-04-22T22:45:20.234Z,59.64
2019-04-22T22:48:03.862Z,59.57
2019-04-22T22:50:27.475Z,59.46
2019-04-22T22:55:21.987Z,59.46
2019-04-22T22:57:56.440Z,59.59
2019-04-22T23:00:16.258Z,59.54
2019-04-22T23:03:03.536Z,59.55
2019-04-22T23:05:21.785Z,59.49
2019-04-22T23:07:47.812Z,59.43
2019-04-22T23:10:07.964Z,59.41
2019-04-22T23:12:55.615Z,59.33
2019-04-22T23:15:06.115Z,59.53
2019-04-22T23:17:16.939Z,59.46
2019-04-22T23:19:44.724Z,59.46
2019-04-22T23:22:20.782Z,59.50
2019-04-22T23:25:03.222Z,59.48
2019-04-22T23:27:42.126Z,59.43
2019-04-22T23:30:21.706Z,59.40
2019-04-22T23:32:57.990Z,59.38
2019-04-22T23:35:29.367Z,59.39
2019-04-22T23:38:01.343Z,59.34
2019-04-22T23:40:29.835Z,59.31
2019-04-22T23:42:58.706Z,59.27
2019-04-22T23:45:27.456Z,59.16
2019-04-22T23:47:43.549Z,59.34
2019-04-22T23:50:21.606Z,59.27
2019-04-22T23:52:50.865Z,59.14
2019-04-22T23:55:14.705Z,59.23
2019-04-22T23:57:48.791Z,59.19
